Time;durP1;ratioP1;P1;durP2;ratioP2;P2;SDS_P1;SDS_P2;PMS_P1;PMS_P2;Temp;Humidity;BMP_temperature;BMP_pressure;BME280_temperature;BME280_humidity;BME280_pressure;Samples;Min_cycle;Max_cycle;Signal;HPM_P1;HPM_P2
2023/09/20 00:00:25;;;;;;;3.67;0.90;;;13.20;99.90;;;;;;5068125;28;20449;-83
2023/09/20 00:02:53;;;;;;;2.30;1.30;;;13.20;99.90;;;;;;5060058;28;20610;-84
2023/09/20 00:05:21;;;;;;;1.40;1.30;;;13.20;99.90;;;;;;5062527;28;21012;-84
2023/09/20 00:07:50;;;;;;;2.60;1.17;;;13.10;99.90;;;;;;5066470;28;20456;-85
2023/09/20 00:10:18;;;;;;;1.10;1.00;;;13.10;99.90;;;;;;5068911;28;20515;-85
2023/09/20 00:12:45;;;;;;;1.10;1.00;;;13.10;99.90;;;;;;5067255;28;20548;-87
2023/09/20 00:15:13;;;;;;;1.60;1.50;;;13.10;99.90;;;;;;5060465;28;20480;-84
2023/09/20 00:17:40;;;;;;;2.20;1.43;;;13.00;99.90;;;;;;5068043;28;20491;-85
2023/09/20 00:20:12;;;;;;;1.10;0.80;;;12.90;99.90;;;;;;5077006;28;20461;-83
2023/09/20 00:22:41;;;;;;;0.87;0.87;;;12.90;99.90;;;;;;5071610;28;20475;-85
2023/09/20 00:25:09;;;;;;;1.13;1.03;;;12.80;99.90;;;;;;5065555;28;20487;-85
2023/09/20 00:27:39;;;;;;;6.63;2.10;;;12.80;99.90;;;;;;5066576;28;20525;-83
2023/09/20 00:30:10;;;;;;;16.17;4.50;;;12.70;99.90;;;;;;5066803;28;20452;-83
2023/09/20 00:32:39;;;;;;;53.10;9.07;;;12.60;99.90;;;;;;5067713;28;20505;-85
2023/09/20 00:35:09;;;;;;;32.17;7.40;;;12.50;99.90;;;;;;5063275;28;20490;-84
2023/09/20 00:37:36;;;;;;;44.90;7.67;;;12.50;99.90;;;;;;5066756;28;20567;-84
2023/09/20 00:40:04;;;;;;;39.33;7.60;;;12.50;99.90;;;;;;5066616;28;21117;-85
2023/09/20 00:42:31;;;;;;;31.97;7.80;;;12.50;99.90;;;;;;5057261;28;20443;-86
2023/09/20 00:45:02;;;;;;;13.67;3.20;;;12.50;99.90;;;;;;5067826;28;20470;-85
2023/09/20 00:47:30;;;;;;;16.53;3.23;;;12.40;99.90;;;;;;5066609;28;20541;-84
2023/09/20 00:49:59;;;;;;;13.60;3.67;;;12.40;99.90;;;;;;5067536;28;20489;-85
2023/09/20 00:52:28;;;;;;;4.57;2.43;;;12.30;99.90;;;;;;5066901;28;20957;-85
2023/09/20 00:54:57;;;;;;;24.50;7.33;;;12.30;99.90;;;;;;5065477;28;20487;-83
2023/09/20 00:57:27;;;;;;;2.90;1.70;;;12.30;99.90;;;;;;5067954;28;20490;-85
2023/09/20 00:59:55;;;;;;;3.97;2.03;;;12.40;99.90;;;;;;5066730;28;20476;-84
2023/09/20 01:02:24;;;;;;;2.20;1.77;;;12.30;99.90;;;;;;5063357;28;20921;-85
2023/09/20 01:04:53;;;;;;;2.93;1.33;;;12.20;99.90;;;;;;5064311;28;20967;-84
2023/09/20 01:07:20;;;;;;;2.40;1.97;;;12.20;99.90;;;;;;5060760;28;20527;-84
2023/09/20 01:09:48;;;;;;;2.00;1.37;;;12.20;99.90;;;;;;5064332;28;20460;-85
2023/09/20 01:12:15;;;;;;;1.90;1.80;;;12.40;99.90;;;;;;5066076;28;20546;-85
2023/09/20 01:14:42;;;;;;;1.80;1.57;;;12.30;99.90;;;;;;5064052;28;20494;-85
2023/09/20 01:17:11;;;;;;;1.70;1.60;;;12.30;99.90;;;;;;5072180;28;20475;-85
2023/09/20 01:19:40;;;;;;;1.13;1.00;;;12.20;99.90;;;;;;5059768;28;20470;-83
2023/09/20 01:22:08;;;;;;;1.30;1.20;;;12.10;99.90;;;;;;5055469;28;20453;-84
2023/09/20 01:24:36;;;;;;;1.37;1.27;;;12.10;99.90;;;;;;5053339;28;20452;-85
2023/09/20 01:27:05;;;;;;;1.23;1.13;;;12.10;99.90;;;;;;5050445;28;20479;-84
2023/09/20 01:29:33;;;;;;;1.53;1.20;;;12.00;99.90;;;;;;5057948;28;20479;-84
2023/09/20 01:32:04;;;;;;;1.73;1.63;;;12.10;99.90;;;;;;5066326;28;20478;-85
2023/09/20 01:34:31;;;;;;;1.13;1.03;;;12.00;99.90;;;;;;5067386;28;20452;-85
2023/09/20 01:36:59;;;;;;;1.10;1.00;;;12.00;99.90;;;;;;5066309;28;20541;-83
2023/09/20 01:39:27;;;;;;;1.50;1.40;;;11.90;99.90;;;;;;5065968;28;20484;-85
2023/09/20 01:41:56;;;;;;;1.33;1.20;;;11.90;99.90;;;;;;5059801;28;20882;-84
2023/09/20 01:44:23;;;;;;;1.00;1.00;;;11.90;99.90;;;;;;5066670;28;20467;-83
2023/09/20 01:46:51;;;;;;;2.50;1.20;;;11.90;99.90;;;;;;5065996;28;20463;-84
2023/09/20 01:49:19;;;;;;;1.77;1.37;;;11.80;99.90;;;;;;5067036;28;20528;-84
2023/09/20 01:51:46;;;;;;;3.43;1.00;;;11.80;99.90;;;;;;5064641;28;20525;-84
2023/09/20 01:54:13;;;;;;;0.87;0.87;;;11.80;99.90;;;;;;5066487;28;20456;-84
2023/09/20 01:56:41;;;;;;;1.60;1.40;;;11.90;99.90;;;;;;5065932;28;20479;-86
2023/09/20 01:59:09;;;;;;;1.50;0.83;;;11.90;99.90;;;;;;5058314;28;20524;-83
2023/09/20 02:01:37;;;;;;;1.10;0.80;;;11.80;99.90;;;;;;5056211;28;21022;-84
2023/09/20 02:04:05;;;;;;;2.33;1.13;;;12.00;99.90;;;;;;5063428;28;20982;-83
2023/09/20 02:06:32;;;;;;;7.60;2.00;;;11.90;99.90;;;;;;5055120;28;20456;-83
2023/09/20 02:08:59;;;;;;;1.97;1.37;;;11.90;99.90;;;;;;5054683;28;20886;-83
2023/09/20 02:11:26;;;;;;;2.50;1.53;;;11.80;99.90;;;;;;5064781;28;20463;-82
2023/09/20 02:13:55;;;;;;;1.70;1.00;;;11.80;99.90;;;;;;5068884;28;20536;-83
2023/09/20 02:16:22;;;;;;;1.63;0.93;;;11.90;99.90;;;;;;5065158;28;20519;-83
2023/09/20 02:18:49;;;;;;;1.43;1.17;;;11.90;99.90;;;;;;5064444;28;20847;-83
2023/09/20 02:21:16;;;;;;;1.20;0.80;;;11.90;99.90;;;;;;5064125;28;20478;-84
2023/09/20 02:23:43;;;;;;;2.60;1.07;;;11.90;99.90;;;;;;5066293;28;20486;-83
2023/09/20 02:26:12;;;;;;;1.37;1.27;;;12.00;99.90;;;;;;5063069;28;20503;-83
2023/09/20 02:28:40;;;;;;;0.90;0.70;;;12.00;99.90;;;;;;5064988;28;20445;-83
2023/09/20 02:31:11;;;;;;;0.80;0.80;;;12.10;99.90;;;;;;5069056;28;20451;-85
2023/09/20 02:33:39;;;;;;;1.30;0.90;;;12.10;99.90;;;;;;5069016;28;20587;-83
2023/09/20 02:36:06;;;;;;;1.30;1.20;;;12.00;99.90;;;;;;5069214;28;21253;-83
2023/09/20 02:38:33;;;;;;;2.77;1.47;;;12.00;99.90;;;;;;5067446;28;20888;-85
2023/09/20 02:41:00;;;;;;;1.57;1.00;;;12.10;99.90;;;;;;5069188;28;20448;-83
2023/09/20 02:43:29;;;;;;;1.70;1.50;;;12.20;99.90;;;;;;5069804;28;20447;-82
2023/09/20 02:45:59;;;;;;;1.23;0.90;;;12.30;99.90;;;;;;5068476;28;20963;-81
2023/09/20 02:48:28;;;;;;;3.67;1.40;;;12.30;99.90;;;;;;5073408;28;20451;-84
2023/09/20 02:50:59;;;;;;;1.07;1.07;;;12.30;99.90;;;;;;5072376;28;20858;-83
2023/09/20 02:53:26;;;;;;;1.20;0.83;;;12.40;99.90;;;;;;5068506;28;20466;-82
2023/09/20 02:55:55;;;;;;;1.47;0.60;;;12.40;99.90;;;;;;5069148;28;20920;-83
2023/09/20 02:58:22;;;;;;;2.70;1.23;;;12.50;99.90;;;;;;5070400;28;20505;-84
2023/09/20 03:00:50;;;;;;;1.40;0.70;;;12.50;99.90;;;;;;5069941;28;20531;-83
2023/09/20 03:03:19;;;;;;;3.03;0.73;;;12.50;99.90;;;;;;5063017;28;20456;-83
2023/09/20 03:05:47;;;;;;;1.33;1.03;;;12.60;99.90;;;;;;5056144;28;20460;-82
2023/09/20 03:08:14;;;;;;;1.30;1.20;;;12.80;99.90;;;;;;5067201;28;20806;-84
2023/09/20 03:10:42;;;;;;;1.33;1.23;;;12.70;99.90;;;;;;5068841;28;20500;-83
2023/09/20 03:13:16;;;;;;;0.70;0.70;;;12.70;99.90;;;;;;5069080;28;20452;-83
2023/09/20 03:15:43;;;;;;;0.80;0.80;;;12.60;99.90;;;;;;5069310;28;20485;-84
2023/09/20 03:18:13;;;;;;;1.53;1.43;;;12.50;99.90;;;;;;5070394;28;20629;-82
2023/09/20 03:20:43;;;;;;;1.10;0.70;;;12.50;99.90;;;;;;5066147;28;21234;-83
2023/09/20 03:23:12;;;;;;;1.03;0.93;;;12.40;99.90;;;;;;5074917;28;20437;-84
2023/09/20 03:25:39;;;;;;;0.70;0.70;;;12.30;99.90;;;;;;5073828;28;20520;-82
2023/09/20 03:28:08;;;;;;;0.93;0.70;;;12.20;99.90;;;;;;5072472;28;20530;-82
2023/09/20 03:30:37;;;;;;;1.57;0.60;;;12.20;99.90;;;;;;5074660;28;20530;-82
2023/09/20 03:33:05;;;;;;;0.80;0.77;;;12.20;99.90;;;;;;5074548;28;20808;-82
2023/09/20 03:35:33;;;;;;;2.33;0.90;;;12.20;99.90;;;;;;5072077;28;20955;-82
2023/09/20 03:38:01;;;;;;;1.47;1.20;;;12.20;99.90;;;;;;5075262;28;20534;-83
2023/09/20 03:40:30;;;;;;;1.00;1.00;;;12.20;99.90;;;;;;5071771;28;20451;-83
2023/09/20 03:42:56;;;;;;;2.13;1.13;;;12.30;99.90;;;;;;5075065;28;21006;-82
2023/09/20 03:45:28;;;;;;;1.20;1.10;;;12.30;99.90;;;;;;5076581;28;20936;-84
2023/09/20 03:47:57;;;;;;;2.40;1.00;;;12.30;99.90;;;;;;5075341;28;20498;-86
2023/09/20 03:50:24;;;;;;;1.73;1.47;;;12.20;99.90;;;;;;5065478;28;20586;-85
2023/09/20 03:52:52;;;;;;;1.63;1.30;;;12.20;99.90;;;;;;5065509;28;20484;-85
2023/09/20 03:55:19;;;;;;;1.47;1.37;;;12.20;99.90;;;;;;5060077;28;20456;-85
2023/09/20 03:57:48;;;;;;;1.23;1.10;;;12.10;99.90;;;;;;5067520;28;20489;-85
2023/09/20 04:00:24;;;;;;;9.10;1.17;;;12.10;99.90;;;;;;5066509;28;20513;-83
2023/09/20 04:02:53;;;;;;;2.40;2.00;;;12.00;99.90;;;;;;5062037;28;20472;-86
2023/09/20 04:05:21;;;;;;;5.00;2.50;;;11.90;99.90;;;;;;5060032;28;20478;-85
2023/09/20 04:07:49;;;;;;;23.50;4.30;;;12.00;99.90;;;;;;5067246;28;20456;-86
2023/09/20 04:10:18;;;;;;;2.93;2.60;;;12.00;99.90;;;;;;5063193;28;20673;-84
2023/09/20 04:12:46;;;;;;;14.30;3.70;;;11.90;99.90;;;;;;5069354;28;21013;-88
2023/09/20 04:15:15;;;;;;;6.80;2.67;;;11.90;99.90;;;;;;5066563;28;20471;-86
2023/09/20 04:17:41;;;;;;;6.30;2.67;;;11.90;99.90;;;;;;5070930;28;20489;-88
2023/09/20 04:20:09;;;;;;;7.83;2.57;;;11.90;99.90;;;;;;5062961;28;20523;-85
2023/09/20 04:22:38;;;;;;;10.80;3.17;;;11.90;99.90;;;;;;5063085;28;20435;-85
2023/09/20 04:25:05;;;;;;;5.43;1.80;;;11.90;99.90;;;;;;5060391;28;20896;-83
2023/09/20 04:27:33;;;;;;;1.63;1.53;;;11.90;99.90;;;;;;5066401;28;20486;-85
2023/09/20 04:30:00;;;;;;;2.90;2.13;;;12.00;99.90;;;;;;5065411;28;20512;-83
2023/09/20 04:32:28;;;;;;;4.30;2.10;;;12.00;99.90;;;;;;5060078;28;20501;-83
2023/09/20 04:34:56;;;;;;;2.47;2.27;;;12.00;99.90;;;;;;5063103;28;20456;-83
2023/09/20 04:37:25;;;;;;;2.43;2.00;;;11.90;99.90;;;;;;5064977;28;20552;-83
2023/09/20 04:39:52;;;;;;;11.40;2.43;;;11.90;99.90;;;;;;5059878;28;20471;-84
2023/09/20 04:42:19;;;;;;;5.60;1.83;;;12.00;99.90;;;;;;5068834;28;20555;-84
2023/09/20 04:44:49;;;;;;;10.33;3.50;;;12.10;99.90;;;;;;5059455;28;20572;-85
2023/09/20 04:47:17;;;;;;;8.03;3.80;;;12.10;99.90;;;;;;5065872;28;20452;-84
2023/09/20 04:49:46;;;;;;;7.27;3.63;;;12.10;99.90;;;;;;5062790;28;20460;-84
2023/09/20 04:52:15;;;;;;;12.70;4.27;;;12.10;99.90;;;;;;5061292;28;20448;-84
2023/09/20 04:54:44;;;;;;;10.23;3.50;;;12.00;99.90;;;;;;5064070;28;20473;-84
2023/09/20 04:57:12;;;;;;;43.70;7.37;;;11.90;99.90;;;;;;5065909;28;20531;-84
2023/09/20 04:59:39;;;;;;;24.03;5.00;;;11.90;99.90;;;;;;5062823;28;20471;-83
2023/09/20 05:02:07;;;;;;;25.27;7.97;;;12.00;99.90;;;;;;5058369;28;21006;-84
2023/09/20 05:04:35;;;;;;;8.53;4.70;;;12.10;99.90;;;;;;5065511;28;20463;-85
2023/09/20 05:07:05;;;;;;;12.93;6.03;;;12.10;99.90;;;;;;5065036;28;20454;-86
2023/09/20 05:09:34;;;;;;;3.03;2.47;;;12.00;99.90;;;;;;5055983;28;20473;-88
2023/09/20 05:12:02;;;;;;;3.37;3.10;;;12.00;99.90;;;;;;5062884;28;20459;-84
2023/09/20 05:14:29;;;;;;;2.40;2.03;;;11.90;99.90;;;;;;5065241;28;20462;-82
2023/09/20 05:16:56;;;;;;;1.60;1.50;;;11.80;99.90;;;;;;5066025;28;20490;-84
2023/09/20 05:19:23;;;;;;;2.80;1.63;;;11.80;99.90;;;;;;5065067;28;20969;-84
2023/09/20 05:21:50;;;;;;;1.43;0.90;;;11.90;99.90;;;;;;5059872;28;20495;-86
2023/09/20 05:24:19;;;;;;;0.73;0.73;;;11.90;99.90;;;;;;5065347;28;20456;-83
2023/09/20 05:26:46;;;;;;;0.87;0.77;;;12.00;99.90;;;;;;5067117;28;20512;-84
2023/09/20 05:29:13;;;;;;;1.20;1.10;;;11.90;99.90;;;;;;5063439;28;20478;-85
2023/09/20 05:31:40;;;;;;;1.27;1.17;;;11.90;99.90;;;;;;5067106;28;20458;-87
2023/09/20 05:34:07;;;;;;;1.50;0.90;;;11.90;99.90;;;;;;5069120;28;21148;-82
2023/09/20 05:36:34;;;;;;;1.83;1.07;;;11.90;99.90;;;;;;5068607;28;20492;-83
2023/09/20 05:39:01;;;;;;;0.80;0.80;;;11.90;99.90;;;;;;5060811;28;20461;-83
2023/09/20 05:41:30;;;;;;;1.43;1.33;;;12.10;99.90;;;;;;5063396;28;20994;-83
2023/09/20 05:43:57;;;;;;;0.90;0.90;;;12.10;99.90;;;;;;5064595;28;20446;-83
2023/09/20 05:46:24;;;;;;;1.27;1.20;;;12.10;99.90;;;;;;5057724;28;21166;-82
2023/09/20 05:48:52;;;;;;;2.47;1.23;;;12.20;99.90;;;;;;5064637;28;20451;-84
2023/09/20 05:51:20;;;;;;;1.87;1.20;;;12.30;99.90;;;;;;5060966;28;20578;-83
2023/09/20 05:53:48;;;;;;;1.77;1.63;;;12.50;99.90;;;;;;5067679;28;20516;-84
2023/09/20 05:56:15;;;;;;;1.80;1.70;;;12.60;99.90;;;;;;5065363;28;20470;-84
2023/09/20 05:58:44;;;;;;;5.03;2.30;;;12.60;99.90;;;;;;5063921;28;20486;-84
2023/09/20 06:01:12;;;;;;;7.20;3.20;;;12.60;99.90;;;;;;5064435;28;20471;-85
2023/09/20 06:03:40;;;;;;;20.70;5.00;;;12.80;99.90;;;;;;5060546;28;21005;-84
2023/09/20 06:06:07;;;;;;;7.57;4.10;;;13.00;99.90;;;;;;5068633;28;20554;-83
2023/09/20 06:08:35;;;;;;;14.07;4.20;;;12.90;99.90;;;;;;5068625;28;20448;-82
2023/09/20 06:11:04;;;;;;;6.30;2.97;;;13.10;99.90;;;;;;5063780;28;20478;-82
2023/09/20 06:13:32;;;;;;;38.03;6.40;;;13.10;99.90;;;;;;5068479;28;20503;-82
2023/09/20 06:16:00;;;;;;;7.73;4.47;;;13.20;99.90;;;;;;5063501;28;20548;-83
2023/09/20 06:18:27;;;;;;;9.33;3.83;;;13.40;99.90;;;;;;5052212;28;20515;-83
2023/09/20 06:20:55;;;;;;;30.83;6.30;;;13.40;99.90;;;;;;5065636;28;20447;-84
2023/09/20 06:23:25;;;;;;;11.07;4.93;;;13.50;99.90;;;;;;5058372;28;20948;-85
2023/09/20 06:25:53;;;;;;;14.40;5.10;;;13.70;99.90;;;;;;5060614;28;21153;-84
2023/09/20 06:28:20;;;;;;;6.00;3.73;;;13.80;99.90;;;;;;5054683;28;20448;-83
2023/09/20 06:30:48;;;;;;;2.83;2.63;;;13.90;99.90;;;;;;5064839;28;21016;-84
2023/09/20 06:33:16;;;;;;;2.70;2.50;;;13.90;99.90;;;;;;5060213;28;20997;-83
2023/09/20 06:35:44;;;;;;;3.53;3.23;;;13.90;99.90;;;;;;5061671;28;20476;-84
2023/09/20 06:38:11;;;;;;;3.00;2.60;;;13.80;99.90;;;;;;5063482;28;21040;-87
2023/09/20 06:40:39;;;;;;;3.33;2.90;;;13.70;99.90;;;;;;5067937;28;20525;-82
2023/09/20 06:43:08;;;;;;;3.77;2.60;;;13.60;99.90;;;;;;5070436;28;20837;-85
2023/09/20 06:45:35;;;;;;;5.40;3.00;;;13.80;99.90;;;;;;5067460;28;20445;-82
2023/09/20 06:48:03;;;;;;;3.53;3.30;;;14.00;99.90;;;;;;5067290;28;20525;-83
2023/09/20 06:50:31;;;;;;;11.37;3.90;;;14.10;99.90;;;;;;5066833;28;20476;-84
2023/09/20 06:52:59;;;;;;;6.93;2.80;;;14.20;99.90;;;;;;5060537;28;20449;-85
2023/09/20 06:55:26;;;;;;;3.03;2.47;;;14.40;99.90;;;;;;5056180;28;20525;-87
2023/09/20 06:57:53;;;;;;;9.33;2.87;;;14.70;99.90;;;;;;5052182;28;20515;-85
2023/09/20 07:00:25;;;;;;;5.07;3.20;;;14.80;99.90;;;;;;5059890;28;20446;-85
2023/09/20 07:02:52;;;;;;;5.63;3.07;;;15.00;99.90;;;;;;5056607;28;20465;-83
2023/09/20 07:05:21;;;;;;;13.03;2.70;;;15.00;99.90;;;;;;5062042;28;20493;-83
2023/09/20 07:07:49;;;;;;;6.33;2.70;;;15.10;99.90;;;;;;5067263;28;20456;-85
2023/09/20 07:10:17;;;;;;;6.00;2.83;;;15.20;99.90;;;;;;5062442;28;20813;-83
2023/09/20 07:12:44;;;;;;;9.13;3.20;;;15.30;99.90;;;;;;5064344;28;20461;-86
2023/09/20 07:15:15;;;;;;;5.47;3.73;;;15.50;99.90;;;;;;5066852;28;21214;-85
2023/09/20 07:17:43;;;;;;;5.87;2.20;;;15.70;99.90;;;;;;5067406;28;20914;-82
2023/09/20 07:20:14;;;;;;;2.87;1.93;;;15.90;99.90;;;;;;5067870;28;21055;-84
2023/09/20 07:22:43;;;;;;;10.67;3.10;;;16.00;99.90;;;;;;5067579;28;20467;-83
2023/09/20 07:25:18;;;;;;;2.90;2.60;;;16.00;99.90;;;;;;5067852;28;20479;-84
2023/09/20 07:27:46;;;;;;;6.40;4.63;;;16.00;99.90;;;;;;5070582;28;20901;-87
2023/09/20 07:30:17;;;;;;;5.30;2.43;;;16.00;99.90;;;;;;5070689;28;20548;-83
2023/09/20 07:32:45;;;;;;;3.33;2.37;;;16.00;99.90;;;;;;5068653;28;20947;-83
2023/09/20 07:35:26;;;;;;;1.70;1.60;;;16.10;99.90;;;;;;5062377;28;20541;-86
2023/09/20 07:37:56;;;;;;;3.07;2.40;;;16.40;99.90;;;;;;5057949;28;20977;-84
2023/09/20 07:40:29;;;;;;;2.90;1.70;;;16.40;99.90;;;;;;5060139;28;20468;-86
2023/09/20 07:42:59;;;;;;;2.23;2.00;;;16.60;99.90;;;;;;5066867;28;20546;-84
2023/09/20 07:45:31;;;;;;;4.03;3.13;;;16.80;99.90;;;;;;5060147;28;20441;-83
2023/09/20 07:48:00;;;;;;;6.53;3.43;;;16.60;99.90;;;;;;5060931;28;21022;-86
2023/09/20 07:50:29;;;;;;;3.13;2.83;;;16.50;99.90;;;;;;5060303;28;20987;-83
2023/09/20 07:52:58;;;;;;;2.97;2.77;;;16.30;99.90;;;;;;5063344;28;21137;-86
2023/09/20 07:55:27;;;;;;;4.10;3.80;;;16.00;99.90;;;;;;5061283;28;20455;-86
2023/09/20 07:57:58;;;;;;;4.30;4.00;;;16.10;99.90;;;;;;5063327;28;20985;-84
2023/09/20 08:00:26;;;;;;;3.73;3.50;;;16.30;99.90;;;;;;5067629;28;20449;-84
2023/09/20 08:02:54;;;;;;;2.70;2.50;;;16.70;99.90;;;;;;5062423;28;21928;-87
2023/09/20 08:05:23;;;;;;;4.10;3.37;;;16.90;99.90;;;;;;5060690;28;20492;-87
2023/09/20 08:07:50;;;;;;;6.17;3.20;;;17.20;99.90;;;;;;5063384;28;20495;-85
2023/09/20 08:10:17;;;;;;;3.63;2.70;;;17.00;99.90;;;;;;5062258;28;20994;-87
2023/09/20 08:12:45;;;;;;;4.20;2.10;;;16.90;99.90;;;;;;5066203;28;20510;-87
2023/09/20 08:15:13;;;;;;;2.00;1.77;;;17.00;99.90;;;;;;5068742;28;20455;-84
2023/09/20 08:20:26;;;;;;;3.00;2.50;;;17.00;99.90;;;;;;5066053;28;20568;-86
2023/09/20 09:01:37;;;;;;;2.80;2.60;;;17.80;99.90;;;;;;5059471;28;20489;-88
2023/09/20 09:04:08;;;;;;;2.00;1.90;;;17.80;99.90;;;;;;5066039;28;20499;-88
2023/09/20 09:06:35;;;;;;;3.20;2.23;;;17.80;99.90;;;;;;5066073;28;20466;-87
2023/09/20 09:09:03;;;;;;;3.10;2.80;;;18.00;99.90;;;;;;5067305;28;20509;-87
2023/09/20 09:11:31;;;;;;;2.23;2.10;;;18.30;99.90;;;;;;5068039;28;20522;-88
2023/09/20 09:13:58;;;;;;;2.00;1.90;;;18.50;99.90;;;;;;5068688;28;20478;-86
2023/09/20 09:16:27;;;;;;;1.47;1.37;;;18.60;99.90;;;;;;5074217;28;20943;-86
2023/09/20 09:18:56;;;;;;;2.00;1.90;;;18.60;99.90;;;;;;5085871;28;20489;-87
2023/09/20 09:21:24;;;;;;;1.57;1.47;;;19.00;99.90;;;;;;5075052;28;20526;-85
2023/09/20 09:23:52;;;;;;;3.40;2.47;;;18.90;99.90;;;;;;5059704;28;20464;-89
2023/09/20 09:26:19;;;;;;;2.37;2.10;;;18.90;99.90;;;;;;5062255;28;20789;-86
2023/09/20 09:28:46;;;;;;;1.20;1.10;;;18.90;99.90;;;;;;5066537;28;20796;-88
2023/09/20 09:31:15;;;;;;;1.90;1.63;;;19.10;99.90;;;;;;5065895;28;20463;-87
2023/09/20 09:33:42;;;;;;;1.57;1.47;;;19.20;99.90;;;;;;5064746;28;20489;-87
2023/09/20 09:36:12;;;;;;;5.73;1.93;;;19.10;99.90;;;;;;5066725;28;20450;-86
2023/09/20 09:38:40;;;;;;;4.00;2.10;;;19.30;99.90;;;;;;5065809;28;20468;-88
2023/09/20 09:41:08;;;;;;;1.80;1.67;;;19.20;99.90;;;;;;5061781;28;20534;-87
2023/09/20 09:43:36;;;;;;;3.20;1.53;;;19.30;99.90;;;;;;5065540;28;20557;-86
2023/09/20 09:46:08;;;;;;;2.90;1.53;;;19.40;99.90;;;;;;5066762;28;20946;-86
2023/09/20 09:48:37;;;;;;;2.17;1.43;;;19.50;99.90;;;;;;5062620;28;20477;-88
2023/09/20 09:51:06;;;;;;;1.50;1.23;;;19.60;99.90;;;;;;5064173;28;20516;-88
2023/09/20 09:53:39;;;;;;;1.80;1.70;;;19.50;99.90;;;;;;5065025;28;20448;-89
2023/09/20 09:56:06;;;;;;;3.20;2.50;;;19.70;99.90;;;;;;5066055;28;20452;-86
2023/09/20 09:58:34;;;;;;;1.77;1.43;;;19.70;99.90;;;;;;5061008;28;20540;-89
2023/09/20 10:01:05;;;;;;;1.93;1.67;;;19.80;99.90;;;;;;5065773;28;21148;-87
2023/09/20 10:03:34;;;;;;;3.23;1.83;;;20.00;99.90;;;;;;5064856;28;20529;-87
2023/09/20 10:06:08;;;;;;;1.73;1.63;;;20.00;99.90;;;;;;5060043;28;20548;-88
2023/09/20 10:08:39;;;;;;;3.93;1.70;;;20.00;99.90;;;;;;5065776;28;20459;-89
2023/09/20 10:11:07;;;;;;;1.10;1.10;;;20.10;99.90;;;;;;5055007;28;20447;-86
2023/09/20 10:13:36;;;;;;;1.80;1.70;;;20.40;99.90;;;;;;5077210;28;20455;-86
2023/09/20 10:16:06;;;;;;;1.33;1.23;;;20.30;99.90;;;;;;5069233;28;20978;-87
2023/09/20 10:18:34;;;;;;;2.33;1.87;;;20.20;99.90;;;;;;5061970;28;20572;-88
2023/09/20 10:21:11;;;;;;;3.00;1.20;;;20.30;99.90;;;;;;5064906;28;20466;-88
2023/09/20 10:23:42;;;;;;;1.63;0.93;;;20.50;99.90;;;;;;5066631;28;20459;-88
2023/09/20 10:26:14;;;;;;;1.50;1.40;;;20.70;99.90;;;;;;5062678;28;20954;-87
2023/09/20 10:28:42;;;;;;;1.50;1.37;;;20.80;99.90;;;;;;5064281;28;20565;-86
2023/09/20 10:31:15;;;;;;;1.20;0.90;;;20.70;99.90;;;;;;5062045;28;20549;-86
2023/09/20 10:33:46;;;;;;;1.10;0.97;;;21.00;99.90;;;;;;5065254;28;20524;-86
2023/09/20 10:36:15;;;;;;;3.00;1.40;;;21.10;99.90;;;;;;5057072;28;20478;-86
2023/09/20 10:38:46;;;;;;;1.77;1.40;;;21.40;99.90;;;;;;5063451;28;20487;-86
2023/09/20 10:41:14;;;;;;;1.67;1.40;;;21.40;99.90;;;;;;5057059;28;20444;-87
2023/09/20 10:43:48;;;;;;;1.97;0.90;;;21.40;99.90;;;;;;5060699;28;20463;-88
2023/09/20 10:46:22;;;;;;;1.20;0.70;;;21.60;99.90;;;;;;5054799;28;21010;-88
2023/09/20 10:48:50;;;;;;;0.77;0.73;;;21.80;99.90;;;;;;5056932;28;20462;-89
2023/09/20 10:51:49;;;;;;;1.57;1.47;;;22.00;99.90;;;;;;5065827;28;20471;-87
2023/09/20 10:54:23;;;;;;;1.00;0.90;;;22.00;99.90;;;;;;5061337;28;20552;-89
2023/09/20 10:57:06;;;;;;;1.47;0.90;;;21.80;99.90;;;;;;5060271;28;20519;-86
2023/09/20 10:59:34;;;;;;;1.00;0.90;;;22.00;99.90;;;;;;5060823;28;20491;-89
2023/09/20 11:02:05;;;;;;;1.00;0.90;;;22.10;99.90;;;;;;5069330;28;20440;-86
2023/09/20 11:04:32;;;;;;;1.30;1.00;;;22.10;99.90;;;;;;5063474;28;20459;-86
2023/09/20 11:07:02;;;;;;;1.13;1.00;;;22.10;99.90;;;;;;5070058;28;20444;-89
2023/09/20 11:09:33;;;;;;;1.10;0.80;;;22.00;99.90;;;;;;5088753;28;20480;-86
2023/09/20 11:12:08;;;;;;;0.80;0.80;;;22.10;99.90;;;;;;5076216;28;20478;-87
2023/09/20 11:14:36;;;;;;;1.00;0.57;;;22.20;99.90;;;;;;5069945;28;20443;-89
2023/09/20 11:17:05;;;;;;;0.57;0.50;;;22.20;99.90;;;;;;5063647;28;20470;-88
2023/09/20 11:19:32;;;;;;;0.97;0.43;;;22.40;98.40;;;;;;5070218;28;21032;-86
2023/09/20 11:21:59;;;;;;;0.80;0.60;;;22.60;92.90;;;;;;5063503;28;20452;-86
2023/09/20 11:24:27;;;;;;;1.00;0.40;;;22.70;93.90;;;;;;5068721;28;20516;-86
2023/09/20 11:26:57;;;;;;;0.50;0.40;;;22.60;91.90;;;;;;5063208;28;21075;-89
2023/09/20 11:29:25;;;;;;;3.90;0.50;;;22.70;91.50;;;;;;5069342;28;20483;-87
2023/09/20 11:31:56;;;;;;;0.90;0.47;;;22.90;95.00;;;;;;5061023;28;20552;-87
2023/09/20 11:34:25;;;;;;;0.60;0.40;;;22.80;91.10;;;;;;5063140;28;20448;-87
2023/09/20 11:36:54;;;;;;;0.90;0.50;;;22.70;90.00;;;;;;5080272;28;20448;-86
2023/09/20 11:39:31;;;;;;;0.70;0.40;;;22.90;91.70;;;;;;5080005;28;20514;-85
2023/09/20 11:42:05;;;;;;;0.70;0.50;;;22.90;87.60;;;;;;5079497;28;20456;-87
2023/09/20 11:44:36;;;;;;;1.73;0.73;;;23.10;90.00;;;;;;5076263;28;20443;-86
2023/09/20 11:47:04;;;;;;;0.60;0.60;;;23.00;87.70;;;;;;5072345;28;20460;-87
2023/09/20 11:49:33;;;;;;;1.23;0.33;;;23.20;89.80;;;;;;5078516;28;20444;-86
2023/09/20 11:52:03;;;;;;;0.60;0.40;;;23.30;89.40;;;;;;5075660;28;20553;-84
2023/09/20 11:54:30;;;;;;;0.60;0.40;;;23.20;85.10;;;;;;5077223;28;20447;-87
2023/09/20 11:57:01;;;;;;;2.70;0.50;;;23.20;82.30;;;;;;5066010;28;20509;-85
2023/09/20 11:59:29;;;;;;;0.50;0.37;;;23.30;84.60;;;;;;5068824;28;20511;-87
2023/09/20 12:01:56;;;;;;;0.60;0.40;;;23.40;86.80;;;;;;5079001;28;20485;-85
2023/09/20 12:04:24;;;;;;;0.60;0.50;;;23.60;82.80;;;;;;5082369;28;20468;-86
2023/09/20 12:06:53;;;;;;;0.80;0.50;;;23.50;79.40;;;;;;5078959;28;20514;-86
2023/09/20 12:09:21;;;;;;;0.70;0.50;;;23.50;80.30;;;;;;5076837;28;20590;-86
2023/09/20 12:11:49;;;;;;;0.97;0.40;;;23.60;81.30;;;;;;5076730;28;20467;-84
2023/09/20 12:14:16;;;;;;;1.10;0.50;;;23.30;79.70;;;;;;5070659;28;20443;-87
2023/09/20 12:16:47;;;;;;;0.50;0.40;;;23.40;80.30;;;;;;5068486;28;20463;-89
2023/09/20 12:19:16;;;;;;;0.60;0.30;;;23.30;78.70;;;;;;5055793;28;21193;-87
2023/09/20 12:21:44;;;;;;;0.70;0.50;;;23.40;79.90;;;;;;5067909;28;21150;-87
2023/09/20 12:24:11;;;;;;;0.53;0.30;;;23.40;79.70;;;;;;5068621;28;20961;-88
2023/09/20 12:26:38;;;;;;;1.17;0.40;;;23.40;81.20;;;;;;5066834;28;20505;-87
2023/09/20 12:29:06;;;;;;;1.77;0.50;;;23.70;82.10;;;;;;5068939;28;20501;-86
2023/09/20 12:31:33;;;;;;;0.50;0.40;;;23.60;76.80;;;;;;5068244;28;20465;-86
2023/09/20 12:34:01;;;;;;;1.80;0.50;;;23.60;77.20;;;;;;5071008;28;20851;-86
2023/09/20 12:36:29;;;;;;;0.40;0.37;;;23.60;79.40;;;;;;5066499;28;20543;-87
2023/09/20 12:38:56;;;;;;;0.63;0.50;;;23.40;78.10;;;;;;5067256;28;20483;-88
2023/09/20 12:41:24;;;;;;;0.60;0.30;;;23.30;77.30;;;;;;5069380;28;20473;-86
2023/09/20 12:43:51;;;;;;;1.37;0.40;;;23.50;79.60;;;;;;5066555;28;20814;-88
2023/09/20 12:46:18;;;;;;;0.50;0.30;;;23.30;76.60;;;;;;5060988;28;20947;-87
2023/09/20 12:48:45;;;;;;;0.50;0.33;;;23.60;78.20;;;;;;5068164;28;20509;-86
2023/09/20 12:51:13;;;;;;;2.20;0.40;;;23.70;77.10;;;;;;5068529;28;20471;-86
2023/09/20 12:53:41;;;;;;;1.70;0.40;;;23.90;76.90;;;;;;5071695;28;20451;-87
2023/09/20 12:56:12;;;;;;;0.60;0.50;;;23.90;79.30;;;;;;5070065;28;20471;-86
2023/09/20 12:58:39;;;;;;;0.60;0.43;;;24.00;78.20;;;;;;5077315;28;20487;-86
2023/09/20 13:01:07;;;;;;;0.50;0.50;;;24.00;75.10;;;;;;5073264;28;20963;-86
2023/09/20 13:03:34;;;;;;;1.10;0.40;;;23.80;78.30;;;;;;5070153;28;20444;-88
2023/09/20 13:06:01;;;;;;;0.50;0.50;;;23.90;78.30;;;;;;5054369;28;21073;-89
2023/09/20 13:08:29;;;;;;;1.23;0.50;;;24.00;76.20;;;;;;5064711;28;20448;-88
2023/09/20 13:10:56;;;;;;;0.77;0.60;;;24.00;76.40;;;;;;5066435;28;20447;-87
2023/09/20 13:13:23;;;;;;;0.90;0.40;;;23.90;77.80;;;;;;5068639;28;20444;-86
2023/09/20 13:15:50;;;;;;;1.60;0.40;;;23.80;81.70;;;;;;5065718;28;20524;-88
2023/09/20 13:18:17;;;;;;;3.07;0.50;;;23.80;78.60;;;;;;5058897;28;20979;-88
2023/09/20 13:20:44;;;;;;;2.30;0.53;;;23.90;79.50;;;;;;5063446;28;20495;-89
2023/09/20 13:23:12;;;;;;;2.57;0.53;;;23.80;81.30;;;;;;5064910;28;20505;-86
2023/09/20 13:25:41;;;;;;;0.70;0.60;;;23.90;82.40;;;;;;5056588;28;20460;-88
2023/09/20 13:28:08;;;;;;;0.50;0.50;;;23.90;79.10;;;;;;5066043;28;20439;-88
2023/09/20 13:30:37;;;;;;;0.53;0.53;;;24.00;79.90;;;;;;5066140;28;20961;-89
2023/09/20 13:33:05;;;;;;;1.63;0.50;;;24.00;79.50;;;;;;5066603;28;20452;-86